sensor_id;sensor_type;location;lat;lon;timestamp;P1;durP1;ratioP1;P2;durP2;ratioP2
21046;SDS011;10682;50.874;3.656;2022-12-18T00:04:04;90.97;;;31.10;;
21046;SDS011;10682;50.874;3.656;2022-12-18T00:06:34;85.77;;;30.93;;
21046;SDS011;10682;50.874;3.656;2022-12-18T00:09:04;76.53;;;29.07;;
21046;SDS011;10682;50.874;3.656;2022-12-18T00:11:34;75.63;;;27.97;;
21046;SDS011;10682;50.874;3.656;2022-12-18T00:14:05;70.93;;;28.33;;
21046;SDS011;10682;50.874;3.656;2022-12-18T00:16:34;80.20;;;28.67;;
21046;SDS011;10682;50.874;3.656;2022-12-18T00:19:03;86.27;;;30.27;;
21046;SDS011;10682;50.874;3.656;2022-12-18T00:21:31;83.40;;;30.00;;
21046;SDS011;10682;50.874;3.656;2022-12-18T00:23:59;70.47;;;26.20;;
21046;SDS011;10682;50.874;3.656;2022-12-18T00:26:27;77.30;;;29.13;;
21046;SDS011;10682;50.874;3.656;2022-12-18T00:28:59;74.20;;;27.13;;
21046;SDS011;10682;50.874;3.656;2022-12-18T00:31:31;70.73;;;27.27;;
21046;SDS011;10682;50.874;3.656;2022-12-18T00:33:58;74.23;;;28.17;;
21046;SDS011;10682;50.874;3.656;2022-12-18T00:36:27;72.30;;;27.83;;
21046;SDS011;10682;50.874;3.656;2022-12-18T00:38:57;74.10;;;26.63;;
21046;SDS011;10682;50.874;3.656;2022-12-18T00:41:27;72.70;;;27.50;;
21046;SDS011;10682;50.874;3.656;2022-12-18T00:44:20;69.77;;;25.13;;
21046;SDS011;10682;50.874;3.656;2022-12-18T00:46:47;74.50;;;28.13;;
21046;SDS011;10682;50.874;3.656;2022-12-18T00:49:15;71.03;;;26.63;;
21046;SDS011;10682;50.874;3.656;2022-12-18T00:51:47;78.37;;;27.63;;
21046;SDS011;10682;50.874;3.656;2022-12-18T00:54:18;71.50;;;27.10;;
21046;SDS011;10682;50.874;3.656;2022-12-18T00:56:48;70.47;;;25.87;;
21046;SDS011;10682;50.874;3.656;2022-12-18T00:59:19;75.30;;;26.83;;
21046;SDS011;10682;50.874;3.656;2022-12-18T01:01:46;72.70;;;27.60;;
21046;SDS011;10682;50.874;3.656;2022-12-18T01:04:17;64.43;;;25.87;;
21046;SDS011;10682;50.874;3.656;2022-12-18T01:06:47;66.83;;;24.97;;
21046;SDS011;10682;50.874;3.656;2022-12-18T01:09:14;69.87;;;25.73;;
21046;SDS011;10682;50.874;3.656;2022-12-18T01:11:44;70.20;;;27.03;;
21046;SDS011;10682;50.874;3.656;2022-12-18T01:14:11;65.00;;;24.17;;
21046;SDS011;10682;50.874;3.656;2022-12-18T01:16:38;69.77;;;25.57;;
21046;SDS011;10682;50.874;3.656;2022-12-18T01:19:05;76.53;;;26.60;;
21046;SDS011;10682;50.874;3.656;2022-12-18T01:21:32;74.07;;;26.17;;
21046;SDS011;10682;50.874;3.656;2022-12-18T01:24:02;69.03;;;24.50;;
21046;SDS011;10682;50.874;3.656;2022-12-18T01:26:30;67.33;;;25.07;;
21046;SDS011;10682;50.874;3.656;2022-12-18T01:28:58;69.63;;;24.70;;
21046;SDS011;10682;50.874;3.656;2022-12-18T01:31:29;65.63;;;25.47;;
21046;SDS011;10682;50.874;3.656;2022-12-18T01:34:01;67.00;;;25.33;;
21046;SDS011;10682;50.874;3.656;2022-12-18T01:36:32;67.23;;;25.87;;
21046;SDS011;10682;50.874;3.656;2022-12-18T01:39:07;70.57;;;24.63;;
21046;SDS011;10682;50.874;3.656;2022-12-18T01:41:43;71.97;;;25.43;;
21046;SDS011;10682;50.874;3.656;2022-12-18T01:47:22;73.20;;;25.43;;
21046;SDS011;10682;50.874;3.656;2022-12-18T01:53:24;72.13;;;24.67;;
21046;SDS011;10682;50.874;3.656;2022-12-18T01:55:57;62.47;;;24.37;;
21046;SDS011;10682;50.874;3.656;2022-12-18T02:01:22;70.00;;;25.57;;
21046;SDS011;10682;50.874;3.656;2022-12-18T02:03:53;74.67;;;24.27;;
21046;SDS011;10682;50.874;3.656;2022-12-18T02:09:18;66.93;;;25.90;;
21046;SDS011;10682;50.874;3.656;2022-12-18T02:18:18;66.73;;;24.27;;
21046;SDS011;10682;50.874;3.656;2022-12-18T02:27:05;65.33;;;24.63;;
21046;SDS011;10682;50.874;3.656;2022-12-18T02:29:46;72.67;;;24.70;;
21046;SDS011;10682;50.874;3.656;2022-12-18T02:32:27;66.00;;;24.37;;
21046;SDS011;10682;50.874;3.656;2022-12-18T02:34:59;67.73;;;25.10;;
21046;SDS011;10682;50.874;3.656;2022-12-18T02:37:28;66.93;;;25.73;;
21046;SDS011;10682;50.874;3.656;2022-12-18T02:39:58;69.77;;;24.83;;
21046;SDS011;10682;50.874;3.656;2022-12-18T02:42:29;65.57;;;25.43;;
21046;SDS011;10682;50.874;3.656;2022-12-18T02:45:00;70.20;;;25.63;;
21046;SDS011;10682;50.874;3.656;2022-12-18T02:47:34;70.90;;;24.50;;
21046;SDS011;10682;50.874;3.656;2022-12-18T02:55:51;62.87;;;24.53;;
21046;SDS011;10682;50.874;3.656;2022-12-18T02:58:56;65.73;;;25.43;;
21046;SDS011;10682;50.874;3.656;2022-12-18T03:01:48;65.53;;;23.90;;
21046;SDS011;10682;50.874;3.656;2022-12-18T03:04:53;64.73;;;23.97;;
21046;SDS011;10682;50.874;3.656;2022-12-18T03:11:15;61.70;;;23.00;;
21046;SDS011;10682;50.874;3.656;2022-12-18T03:13:45;57.30;;;23.93;;
21046;SDS011;10682;50.874;3.656;2022-12-18T03:16:24;65.40;;;23.77;;
21046;SDS011;10682;50.874;3.656;2022-12-18T03:18:56;61.90;;;25.10;;
21046;SDS011;10682;50.874;3.656;2022-12-18T03:21:29;61.80;;;24.23;;
21046;SDS011;10682;50.874;3.656;2022-12-18T03:24:04;64.67;;;23.53;;
21046;SDS011;10682;50.874;3.656;2022-12-18T03:26:35;63.60;;;24.40;;
21046;SDS011;10682;50.874;3.656;2022-12-18T03:29:11;61.67;;;23.57;;
21046;SDS011;10682;50.874;3.656;2022-12-18T03:31:54;61.70;;;24.60;;
21046;SDS011;10682;50.874;3.656;2022-12-18T03:34:34;65.10;;;24.17;;
21046;SDS011;10682;50.874;3.656;2022-12-18T03:37:04;67.60;;;24.00;;
21046;SDS011;10682;50.874;3.656;2022-12-18T03:39:34;69.87;;;25.50;;
21046;SDS011;10682;50.874;3.656;2022-12-18T03:42:06;72.90;;;26.77;;
21046;SDS011;10682;50.874;3.656;2022-12-18T03:44:48;69.07;;;25.87;;
21046;SDS011;10682;50.874;3.656;2022-12-18T03:53:26;56.07;;;23.00;;
21046;SDS011;10682;50.874;3.656;2022-12-18T03:56:05;61.33;;;23.10;;
21046;SDS011;10682;50.874;3.656;2022-12-18T03:58:40;68.50;;;24.43;;
21046;SDS011;10682;50.874;3.656;2022-12-18T04:01:12;76.27;;;25.47;;
21046;SDS011;10682;50.874;3.656;2022-12-18T04:03:43;71.53;;;25.27;;
21046;SDS011;10682;50.874;3.656;2022-12-18T04:06:13;64.83;;;24.10;;
21046;SDS011;10682;50.874;3.656;2022-12-18T04:08:43;62.67;;;24.57;;
21046;SDS011;10682;50.874;3.656;2022-12-18T04:11:11;62.73;;;24.77;;
21046;SDS011;10682;50.874;3.656;2022-12-18T04:13:38;61.77;;;24.20;;
21046;SDS011;10682;50.874;3.656;2022-12-18T04:16:08;64.63;;;24.87;;
21046;SDS011;10682;50.874;3.656;2022-12-18T04:18:39;61.43;;;23.93;;
21046;SDS011;10682;50.874;3.656;2022-12-18T04:21:06;58.93;;;24.07;;
21046;SDS011;10682;50.874;3.656;2022-12-18T04:23:33;58.67;;;22.27;;
21046;SDS011;10682;50.874;3.656;2022-12-18T04:26:00;62.53;;;22.57;;
21046;SDS011;10682;50.874;3.656;2022-12-18T04:28:27;57.93;;;23.03;;
21046;SDS011;10682;50.874;3.656;2022-12-18T04:30:54;59.07;;;22.53;;
21046;SDS011;10682;50.874;3.656;2022-12-18T04:33:23;56.70;;;22.27;;
21046;SDS011;10682;50.874;3.656;2022-12-18T04:35:50;62.87;;;21.77;;
21046;SDS011;10682;50.874;3.656;2022-12-18T04:38:17;60.83;;;23.23;;
21046;SDS011;10682;50.874;3.656;2022-12-18T04:40:45;59.93;;;21.77;;
21046;SDS011;10682;50.874;3.656;2022-12-18T04:43:12;52.57;;;20.37;;
21046;SDS011;10682;50.874;3.656;2022-12-18T04:45:39;56.10;;;21.67;;
21046;SDS011;10682;50.874;3.656;2022-12-18T04:48:06;59.80;;;21.90;;
21046;SDS011;10682;50.874;3.656;2022-12-18T04:50:33;53.03;;;20.83;;
21046;SDS011;10682;50.874;3.656;2022-12-18T04:53:06;55.63;;;22.57;;
21046;SDS011;10682;50.874;3.656;2022-12-18T04:55:38;57.83;;;22.57;;
21046;SDS011;10682;50.874;3.656;2022-12-18T04:58:05;57.70;;;23.50;;
21046;SDS011;10682;50.874;3.656;2022-12-18T05:00:36;60.83;;;23.03;;
21046;SDS011;10682;50.874;3.656;2022-12-18T05:03:03;52.77;;;21.00;;
21046;SDS011;10682;50.874;3.656;2022-12-18T05:05:34;56.00;;;21.37;;
21046;SDS011;10682;50.874;3.656;2022-12-18T05:08:01;65.97;;;23.13;;
21046;SDS011;10682;50.874;3.656;2022-12-18T05:10:28;61.10;;;23.37;;
21046;SDS011;10682;50.874;3.656;2022-12-18T05:13:06;58.17;;;22.37;;
21046;SDS011;10682;50.874;3.656;2022-12-18T05:15:36;56.40;;;21.93;;
21046;SDS011;10682;50.874;3.656;2022-12-18T05:18:03;57.63;;;20.93;;
21046;SDS011;10682;50.874;3.656;2022-12-18T05:20:31;59.80;;;22.03;;
21046;SDS011;10682;50.874;3.656;2022-12-18T05:23:02;49.07;;;19.73;;
21046;SDS011;10682;50.874;3.656;2022-12-18T05:25:29;54.13;;;20.30;;
21046;SDS011;10682;50.874;3.656;2022-12-18T05:27:56;55.73;;;22.63;;
21046;SDS011;10682;50.874;3.656;2022-12-18T05:30:23;61.90;;;22.80;;
21046;SDS011;10682;50.874;3.656;2022-12-18T05:32:51;58.47;;;21.33;;
21046;SDS011;10682;50.874;3.656;2022-12-18T05:35:21;55.50;;;23.00;;
21046;SDS011;10682;50.874;3.656;2022-12-18T05:37:50;57.03;;;22.93;;
21046;SDS011;10682;50.874;3.656;2022-12-18T05:40:17;53.63;;;22.10;;
21046;SDS011;10682;50.874;3.656;2022-12-18T05:42:47;60.03;;;22.93;;
21046;SDS011;10682;50.874;3.656;2022-12-18T05:45:15;64.43;;;22.37;;
21046;SDS011;10682;50.874;3.656;2022-12-18T05:47:42;59.00;;;23.30;;
21046;SDS011;10682;50.874;3.656;2022-12-18T05:50:09;54.13;;;21.47;;
21046;SDS011;10682;50.874;3.656;2022-12-18T05:52:36;56.77;;;21.83;;
21046;SDS011;10682;50.874;3.656;2022-12-18T05:55:03;59.60;;;22.13;;
21046;SDS011;10682;50.874;3.656;2022-12-18T05:57:31;61.50;;;23.33;;
21046;SDS011;10682;50.874;3.656;2022-12-18T05:59:58;61.03;;;23.33;;
21046;SDS011;10682;50.874;3.656;2022-12-18T06:02:30;61.50;;;22.77;;
21046;SDS011;10682;50.874;3.656;2022-12-18T06:04:58;52.00;;;21.57;;
21046;SDS011;10682;50.874;3.656;2022-12-18T06:07:31;59.07;;;21.43;;
21046;SDS011;10682;50.874;3.656;2022-12-18T06:09:58;56.97;;;22.00;;
21046;SDS011;10682;50.874;3.656;2022-12-18T06:12:25;57.47;;;21.13;;
21046;SDS011;10682;50.874;3.656;2022-12-18T06:14:52;63.67;;;22.50;;
21046;SDS011;10682;50.874;3.656;2022-12-18T06:17:21;68.30;;;23.20;;
21046;SDS011;10682;50.874;3.656;2022-12-18T06:19:50;58.77;;;21.53;;
21046;SDS011;10682;50.874;3.656;2022-12-18T06:22:21;60.40;;;21.90;;
21046;SDS011;10682;50.874;3.656;2022-12-18T06:24:48;52.30;;;19.93;;
21046;SDS011;10682;50.874;3.656;2022-12-18T06:27:16;56.37;;;21.13;;
21046;SDS011;10682;50.874;3.656;2022-12-18T06:29:43;56.93;;;22.03;;
21046;SDS011;10682;50.874;3.656;2022-12-18T06:32:12;58.13;;;22.67;;
21046;SDS011;10682;50.874;3.656;2022-12-18T06:34:42;61.30;;;22.80;;
21046;SDS011;10682;50.874;3.656;2022-12-18T06:37:09;51.27;;;21.53;;
21046;SDS011;10682;50.874;3.656;2022-12-18T06:39:36;55.33;;;20.60;;
21046;SDS011;10682;50.874;3.656;2022-12-18T06:42:03;52.87;;;20.10;;
21046;SDS011;10682;50.874;3.656;2022-12-18T06:44:30;52.23;;;19.73;;
21046;SDS011;10682;50.874;3.656;2022-12-18T06:46:57;54.77;;;20.23;;
21046;SDS011;10682;50.874;3.656;2022-12-18T06:49:24;53.70;;;20.13;;
21046;SDS011;10682;50.874;3.656;2022-12-18T06:51:55;49.70;;;19.43;;
21046;SDS011;10682;50.874;3.656;2022-12-18T06:54:22;54.73;;;20.10;;
21046;SDS011;10682;50.874;3.656;2022-12-18T06:56:50;45.00;;;18.30;;
21046;SDS011;10682;50.874;3.656;2022-12-18T06:59:18;51.73;;;19.97;;
21046;SDS011;10682;50.874;3.656;2022-12-18T07:01:49;49.80;;;19.53;;
21046;SDS011;10682;50.874;3.656;2022-12-18T07:04:19;49.27;;;20.57;;
21046;SDS011;10682;50.874;3.656;2022-12-18T07:06:53;47.47;;;19.50;;
21046;SDS011;10682;50.874;3.656;2022-12-18T07:09:20;56.33;;;20.53;;
21046;SDS011;10682;50.874;3.656;2022-12-18T07:11:48;44.40;;;19.67;;
21046;SDS011;10682;50.874;3.656;2022-12-18T07:14:15;46.03;;;19.03;;
21046;SDS011;10682;50.874;3.656;2022-12-18T07:16:42;46.47;;;19.03;;
21046;SDS011;10682;50.874;3.656;2022-12-18T07:19:09;57.23;;;19.77;;
21046;SDS011;10682;50.874;3.656;2022-12-18T07:21:36;50.17;;;19.83;;
21046;SDS011;10682;50.874;3.656;2022-12-18T07:24:03;46.00;;;18.63;;
21046;SDS011;10682;50.874;3.656;2022-12-18T07:26:30;45.37;;;18.53;;
21046;SDS011;10682;50.874;3.656;2022-12-18T07:28:57;35.90;;;16.23;;
21046;SDS011;10682;50.874;3.656;2022-12-18T07:31:24;45.77;;;15.90;;
21046;SDS011;10682;50.874;3.656;2022-12-18T07:33:53;32.77;;;14.43;;
21046;SDS011;10682;50.874;3.656;2022-12-18T07:36:21;35.40;;;14.63;;
21046;SDS011;10682;50.874;3.656;2022-12-18T07:38:49;32.00;;;13.27;;
21046;SDS011;10682;50.874;3.656;2022-12-18T07:41:17;34.10;;;13.83;;
21046;SDS011;10682;50.874;3.656;2022-12-18T07:43:45;35.63;;;14.17;;
21046;SDS011;10682;50.874;3.656;2022-12-18T07:46:12;30.63;;;12.80;;
21046;SDS011;10682;50.874;3.656;2022-12-18T07:48:41;29.37;;;11.80;;
21046;SDS011;10682;50.874;3.656;2022-12-18T07:51:14;25.87;;;11.13;;
21046;SDS011;10682;50.874;3.656;2022-12-18T07:53:42;27.87;;;12.03;;
21046;SDS011;10682;50.874;3.656;2022-12-18T07:56:10;26.03;;;11.23;;
21046;SDS011;10682;50.874;3.656;2022-12-18T07:58:56;27.87;;;11.77;;
21046;SDS011;10682;50.874;3.656;2022-12-18T08:01:24;34.77;;;12.73;;
21046;SDS011;10682;50.874;3.656;2022-12-18T08:03:52;26.33;;;11.73;;
21046;SDS011;10682;50.874;3.656;2022-12-18T08:06:19;27.57;;;11.80;;
21046;SDS011;10682;50.874;3.656;2022-12-18T08:08:53;30.63;;;12.10;;
21046;SDS011;10682;50.874;3.656;2022-12-18T08:11:22;30.77;;;12.83;;
21046;SDS011;10682;50.874;3.656;2022-12-18T08:13:51;33.00;;;13.30;;
21046;SDS011;10682;50.874;3.656;2022-12-18T08:16:19;29.30;;;12.83;;
21046;SDS011;10682;50.874;3.656;2022-12-18T08:18:47;29.90;;;13.03;;
21046;SDS011;10682;50.874;3.656;2022-12-18T08:21:19;31.87;;;13.43;;
21046;SDS011;10682;50.874;3.656;2022-12-18T08:23:50;28.87;;;12.40;;
21046;SDS011;10682;50.874;3.656;2022-12-18T08:26:19;31.97;;;12.67;;
21046;SDS011;10682;50.874;3.656;2022-12-18T08:28:47;26.90;;;11.83;;
21046;SDS011;10682;50.874;3.656;2022-12-18T08:31:16;28.27;;;11.37;;
21046;SDS011;10682;50.874;3.656;2022-12-18T08:33:44;27.53;;;11.20;;
21046;SDS011;10682;50.874;3.656;2022-12-18T08:36:12;27.27;;;10.93;;
21046;SDS011;10682;50.874;3.656;2022-12-18T08:38:39;23.70;;;10.30;;
21046;SDS011;10682;50.874;3.656;2022-12-18T08:41:09;23.70;;;9.83;;
21046;SDS011;10682;50.874;3.656;2022-12-18T08:43:39;20.53;;;9.30;;
21046;SDS011;10682;50.874;3.656;2022-12-18T08:46:26;27.93;;;10.80;;
21046;SDS011;10682;50.874;3.656;2022-12-18T08:48:57;24.53;;;10.63;;
21046;SDS011;10682;50.874;3.656;2022-12-18T08:51:24;23.07;;;10.10;;
21046;SDS011;10682;50.874;3.656;2022-12-18T08:53:51;19.50;;;9.87;;
21046;SDS011;10682;50.874;3.656;2022-12-18T08:56:18;22.47;;;9.67;;
21046;SDS011;10682;50.874;3.656;2022-12-18T08:58:45;23.07;;;10.30;;
21046;SDS011;10682;50.874;3.656;2022-12-18T09:01:12;23.83;;;10.33;;
21046;SDS011;10682;50.874;3.656;2022-12-18T09:03:40;24.87;;;10.07;;
21046;SDS011;10682;50.874;3.656;2022-12-18T09:06:08;25.00;;;9.80;;
21046;SDS011;10682;50.874;3.656;2022-12-18T09:08:35;23.63;;;9.90;;
21046;SDS011;10682;50.874;3.656;2022-12-18T09:11:03;25.43;;;10.23;;
21046;SDS011;10682;50.874;3.656;2022-12-18T09:13:30;24.87;;;11.13;;
21046;SDS011;10682;50.874;3.656;2022-12-18T09:15:57;25.33;;;10.43;;
21046;SDS011;10682;50.874;3.656;2022-12-18T09:18:24;26.10;;;10.53;;
21046;SDS011;10682;50.874;3.656;2022-12-18T09:20:51;26.37;;;11.00;;
21046;SDS011;10682;50.874;3.656;2022-12-18T09:23:19;23.40;;;10.80;;
21046;SDS011;10682;50.874;3.656;2022-12-18T09:25:47;24.83;;;11.20;;
21046;SDS011;10682;50.874;3.656;2022-12-18T09:28:15;24.23;;;11.13;;
21046;SDS011;10682;50.874;3.656;2022-12-18T09:30:47;24.00;;;11.30;;
21046;SDS011;10682;50.874;3.656;2022-12-18T09:33:16;21.50;;;10.70;;
21046;SDS011;10682;50.874;3.656;2022-12-18T09:35:43;25.07;;;11.43;;
21046;SDS011;10682;50.874;3.656;2022-12-18T09:38:12;26.47;;;11.23;;
21046;SDS011;10682;50.874;3.656;2022-12-18T09:40:45;26.97;;;11.07;;
21046;SDS011;10682;50.874;3.656;2022-12-18T09:46:17;23.43;;;10.87;;
21046;SDS011;10682;50.874;3.656;2022-12-18T09:48:54;24.97;;;10.23;;
21046;SDS011;10682;50.874;3.656;2022-12-18T09:51:32;25.13;;;11.60;;
21046;SDS011;10682;50.874;3.656;2022-12-18T09:54:09;24.00;;;9.87;;
21046;SDS011;10682;50.874;3.656;2022-12-18T09:56:42;24.23;;;11.10;;
21046;SDS011;10682;50.874;3.656;2022-12-18T10:01:53;23.20;;;10.93;;
21046;SDS011;10682;50.874;3.656;2022-12-18T10:04:20;22.83;;;10.20;;
21046;SDS011;10682;50.874;3.656;2022-12-18T10:06:52;26.93;;;11.20;;
21046;SDS011;10682;50.874;3.656;2022-12-18T10:09:37;31.30;;;13.97;;
21046;SDS011;10682;50.874;3.656;2022-12-18T10:12:32;30.53;;;12.27;;
21046;SDS011;10682;50.874;3.656;2022-12-18T10:20:37;24.93;;;11.07;;
21046;SDS011;10682;50.874;3.656;2022-12-18T10:23:27;25.87;;;10.73;;
21046;SDS011;10682;50.874;3.656;2022-12-18T10:26:13;27.43;;;11.27;;
21046;SDS011;10682;50.874;3.656;2022-12-18T10:28:40;25.97;;;11.43;;
21046;SDS011;10682;50.874;3.656;2022-12-18T10:31:13;26.10;;;12.57;;
21046;SDS011;10682;50.874;3.656;2022-12-18T10:33:45;25.80;;;12.07;;
21046;SDS011;10682;50.874;3.656;2022-12-18T10:36:12;24.80;;;11.63;;
21046;SDS011;10682;50.874;3.656;2022-12-18T10:38:39;28.17;;;11.83;;
21046;SDS011;10682;50.874;3.656;2022-12-18T10:43:46;26.37;;;12.13;;
21046;SDS011;10682;50.874;3.656;2022-12-18T10:46:15;25.23;;;11.93;;
21046;SDS011;10682;50.874;3.656;2022-12-18T10:51:20;27.00;;;12.47;;
21046;SDS011;10682;50.874;3.656;2022-12-18T10:54:13;26.57;;;12.13;;
21046;SDS011;10682;50.874;3.656;2022-12-18T10:56:44;23.20;;;10.83;;
21046;SDS011;10682;50.874;3.656;2022-12-18T10:59:13;29.60;;;13.13;;
21046;SDS011;10682;50.874;3.656;2022-12-18T11:01:50;30.80;;;13.30;;
21046;SDS011;10682;50.874;3.656;2022-12-18T11:04:22;28.00;;;12.43;;
21046;SDS011;10682;50.874;3.656;2022-12-18T11:06:53;31.67;;;13.07;;
21046;SDS011;10682;50.874;3.656;2022-12-18T11:09:31;30.67;;;13.83;;
21046;SDS011;10682;50.874;3.656;2022-12-18T11:12:16;28.87;;;13.83;;
21046;SDS011;10682;50.874;3.656;2022-12-18T11:14:46;30.97;;;14.17;;
21046;SDS011;10682;50.874;3.656;2022-12-18T11:20:38;31.07;;;14.13;;
21046;SDS011;10682;50.874;3.656;2022-12-18T11:23:05;36.33;;;15.00;;
21046;SDS011;10682;50.874;3.656;2022-12-18T11:25:38;35.23;;;14.87;;
21046;SDS011;10682;50.874;3.656;2022-12-18T11:28:25;36.10;;;14.37;;
21046;SDS011;10682;50.874;3.656;2022-12-18T11:31:35;33.27;;;14.60;;
21046;SDS011;10682;50.874;3.656;2022-12-18T11:36:59;40.00;;;15.20;;
21046;SDS011;10682;50.874;3.656;2022-12-18T11:39:35;33.50;;;15.37;;
21046;SDS011;10682;50.874;3.656;2022-12-18T11:42:12;33.83;;;14.83;;
21046;SDS011;10682;50.874;3.656;2022-12-18T11:47:49;37.57;;;15.87;;
21046;SDS011;10682;50.874;3.656;2022-12-18T11:50:38;37.83;;;16.20;;
21046;SDS011;10682;50.874;3.656;2022-12-18T11:53:25;35.77;;;15.60;;
21046;SDS011;10682;50.874;3.656;2022-12-18T11:58:39;37.83;;;17.03;;
21046;SDS011;10682;50.874;3.656;2022-12-18T12:16:40;47.47;;;18.60;;
21046;SDS011;10682;50.874;3.656;2022-12-18T12:25:19;43.87;;;18.70;;
21046;SDS011;10682;50.874;3.656;2022-12-18T12:39:14;48.23;;;18.77;;
21046;SDS011;10682;50.874;3.656;2022-12-18T12:41:48;45.17;;;18.87;;
21046;SDS011;10682;50.874;3.656;2022-12-18T12:44:42;45.20;;;19.57;;
21046;SDS011;10682;50.874;3.656;2022-12-18T12:47:31;43.37;;;18.43;;
21046;SDS011;10682;50.874;3.656;2022-12-18T12:50:05;45.47;;;19.53;;
21046;SDS011;10682;50.874;3.656;2022-12-18T12:52:44;52.33;;;21.07;;
21046;SDS011;10682;50.874;3.656;2022-12-18T12:55:22;47.93;;;19.80;;
21046;SDS011;10682;50.874;3.656;2022-12-18T12:57:55;45.93;;;19.30;;
21046;SDS011;10682;50.874;3.656;2022-12-18T13:07:01;45.43;;;19.33;;
21046;SDS011;10682;50.874;3.656;2022-12-18T13:13:03;49.17;;;19.73;;
21046;SDS011;10682;50.874;3.656;2022-12-18T13:15:43;48.63;;;20.03;;
21046;SDS011;10682;50.874;3.656;2022-12-18T13:18:18;50.03;;;20.47;;
21046;SDS011;10682;50.874;3.656;2022-12-18T13:23:35;46.97;;;19.97;;
21046;SDS011;10682;50.874;3.656;2022-12-18T13:31:12;54.60;;;21.20;;
21046;SDS011;10682;50.874;3.656;2022-12-18T13:34:33;49.37;;;20.43;;
21046;SDS011;10682;50.874;3.656;2022-12-18T13:37:39;47.63;;;19.27;;
21046;SDS011;10682;50.874;3.656;2022-12-18T13:39:58;50.10;;;19.80;;
21046;SDS011;10682;50.874;3.656;2022-12-18T13:42:35;49.77;;;20.83;;
21046;SDS011;10682;50.874;3.656;2022-12-18T13:45:43;46.00;;;19.37;;
21046;SDS011;10682;50.874;3.656;2022-12-18T13:48:49;48.07;;;18.50;;
21046;SDS011;10682;50.874;3.656;2022-12-18T13:51:32;47.70;;;19.93;;
21046;SDS011;10682;50.874;3.656;2022-12-18T13:54:01;53.20;;;20.77;;
21046;SDS011;10682;50.874;3.656;2022-12-18T13:56:42;50.53;;;20.20;;
21046;SDS011;10682;50.874;3.656;2022-12-18T14:04:28;47.67;;;19.70;;
21046;SDS011;10682;50.874;3.656;2022-12-18T14:07:04;45.63;;;19.77;;
21046;SDS011;10682;50.874;3.656;2022-12-18T14:09:43;57.43;;;21.70;;
21046;SDS011;10682;50.874;3.656;2022-12-18T14:12:20;51.90;;;19.70;;
21046;SDS011;10682;50.874;3.656;2022-12-18T14:17:53;45.20;;;19.57;;
21046;SDS011;10682;50.874;3.656;2022-12-18T14:20:57;50.83;;;19.93;;
21046;SDS011;10682;50.874;3.656;2022-12-18T14:26:01;47.83;;;19.73;;
21046;SDS011;10682;50.874;3.656;2022-12-18T14:28:45;49.70;;;19.63;;
21046;SDS011;10682;50.874;3.656;2022-12-18T14:31:19;49.03;;;19.97;;
21046;SDS011;10682;50.874;3.656;2022-12-18T14:33:55;47.90;;;18.40;;
21046;SDS011;10682;50.874;3.656;2022-12-18T14:36:26;42.33;;;18.47;;
21046;SDS011;10682;50.874;3.656;2022-12-18T14:38:56;51.37;;;20.17;;
21046;SDS011;10682;50.874;3.656;2022-12-18T14:41:27;45.50;;;19.27;;
21046;SDS011;10682;50.874;3.656;2022-12-18T14:43:54;54.50;;;20.23;;
21046;SDS011;10682;50.874;3.656;2022-12-18T14:49:05;51.47;;;19.20;;
21046;SDS011;10682;50.874;3.656;2022-12-18T14:51:56;49.57;;;19.67;;
21046;SDS011;10682;50.874;3.656;2022-12-18T14:54:33;50.33;;;19.73;;
21046;SDS011;10682;50.874;3.656;2022-12-18T14:57:15;49.87;;;20.60;;
21046;SDS011;10682;50.874;3.656;2022-12-18T15:00:05;49.43;;;19.10;;
21046;SDS011;10682;50.874;3.656;2022-12-18T15:02:37;47.13;;;19.80;;
21046;SDS011;10682;50.874;3.656;2022-12-18T15:05:18;49.03;;;19.90;;
21046;SDS011;10682;50.874;3.656;2022-12-18T15:07:59;50.50;;;19.53;;
21046;SDS011;10682;50.874;3.656;2022-12-18T15:10:29;52.23;;;20.20;;
21046;SDS011;10682;50.874;3.656;2022-12-18T15:18:04;50.83;;;19.90;;
21046;SDS011;10682;50.874;3.656;2022-12-18T15:20:54;48.90;;;19.90;;
21046;SDS011;10682;50.874;3.656;2022-12-18T15:23:24;48.90;;;20.13;;
21046;SDS011;10682;50.874;3.656;2022-12-18T15:26:04;50.90;;;18.83;;
21046;SDS011;10682;50.874;3.656;2022-12-18T15:28:39;51.37;;;20.10;;
21046;SDS011;10682;50.874;3.656;2022-12-18T15:31:30;48.83;;;19.43;;
21046;SDS011;10682;50.874;3.656;2022-12-18T15:36:47;47.73;;;19.20;;
21046;SDS011;10682;50.874;3.656;2022-12-18T15:39:14;48.50;;;18.97;;
21046;SDS011;10682;50.874;3.656;2022-12-18T15:41:41;46.20;;;19.43;;
21046;SDS011;10682;50.874;3.656;2022-12-18T15:44:28;44.23;;;18.23;;
21046;SDS011;10682;50.874;3.656;2022-12-18T15:46:55;50.13;;;19.47;;
21046;SDS011;10682;50.874;3.656;2022-12-18T15:49:23;53.20;;;20.40;;
21046;SDS011;10682;50.874;3.656;2022-12-18T15:51:51;48.77;;;18.03;;
21046;SDS011;10682;50.874;3.656;2022-12-18T15:54:21;50.40;;;18.93;;
21046;SDS011;10682;50.874;3.656;2022-12-18T15:57:11;48.57;;;18.67;;
21046;SDS011;10682;50.874;3.656;2022-12-18T15:59:52;46.90;;;18.30;;
21046;SDS011;10682;50.874;3.656;2022-12-18T16:02:22;46.10;;;17.57;;
21046;SDS011;10682;50.874;3.656;2022-12-18T16:04:51;50.07;;;19.13;;
21046;SDS011;10682;50.874;3.656;2022-12-18T16:07:19;48.20;;;18.67;;
21046;SDS011;10682;50.874;3.656;2022-12-18T16:09:51;51.17;;;20.00;;
21046;SDS011;10682;50.874;3.656;2022-12-18T16:12:22;49.97;;;18.77;;
21046;SDS011;10682;50.874;3.656;2022-12-18T16:14:51;52.97;;;19.53;;
21046;SDS011;10682;50.874;3.656;2022-12-18T16:17:18;46.37;;;19.10;;
21046;SDS011;10682;50.874;3.656;2022-12-18T16:19:45;52.17;;;20.10;;
21046;SDS011;10682;50.874;3.656;2022-12-18T16:22:15;47.37;;;19.30;;
21046;SDS011;10682;50.874;3.656;2022-12-18T16:24:55;51.07;;;19.73;;
21046;SDS011;10682;50.874;3.656;2022-12-18T16:27:24;50.27;;;18.97;;
21046;SDS011;10682;50.874;3.656;2022-12-18T16:29:51;46.10;;;18.00;;
21046;SDS011;10682;50.874;3.656;2022-12-18T16:32:19;53.53;;;19.97;;
21046;SDS011;10682;50.874;3.656;2022-12-18T16:34:48;48.67;;;18.10;;
21046;SDS011;10682;50.874;3.656;2022-12-18T16:37:15;46.90;;;18.00;;
21046;SDS011;10682;50.874;3.656;2022-12-18T16:39:43;50.63;;;19.03;;
21046;SDS011;10682;50.874;3.656;2022-12-18T16:42:14;47.30;;;18.50;;
21046;SDS011;10682;50.874;3.656;2022-12-18T16:44:46;49.50;;;17.83;;
21046;SDS011;10682;50.874;3.656;2022-12-18T16:47:15;50.50;;;19.07;;
21046;SDS011;10682;50.874;3.656;2022-12-18T16:49:43;51.97;;;17.77;;
21046;SDS011;10682;50.874;3.656;2022-12-18T16:52:11;49.73;;;17.97;;
21046;SDS011;10682;50.874;3.656;2022-12-18T16:54:39;54.47;;;18.80;;
21046;SDS011;10682;50.874;3.656;2022-12-18T16:57:06;46.93;;;18.43;;
21046;SDS011;10682;50.874;3.656;2022-12-18T16:59:34;48.67;;;17.23;;
21046;SDS011;10682;50.874;3.656;2022-12-18T17:02:01;50.73;;;18.40;;
21046;SDS011;10682;50.874;3.656;2022-12-18T17:04:28;44.10;;;17.47;;
21046;SDS011;10682;50.874;3.656;2022-12-18T17:06:55;42.07;;;17.37;;
21046;SDS011;10682;50.874;3.656;2022-12-18T17:09:22;46.83;;;18.63;;
21046;SDS011;10682;50.874;3.656;2022-12-18T17:11:52;44.73;;;17.47;;
21046;SDS011;10682;50.874;3.656;2022-12-18T17:14:21;48.80;;;18.57;;